createdAt,value
2023-01-27T00:01:06.123Z,3.60
2023-01-27T00:03:35.814Z,2.30
2023-01-27T00:06:04.594Z,2.30
2023-01-27T00:08:32.582Z,2.10
2023-01-27T00:11:14.993Z,2.30
2023-01-27T00:13:42.880Z,2.50
2023-01-27T00:16:10.870Z,2.30
2023-01-27T00:18:40.210Z,4.90
2023-01-27T00:21:25.494Z,2.10
2023-01-27T00:24:11.070Z,2.10
2023-01-27T00:26:39.233Z,2.20
2023-01-27T00:29:07.121Z,2.30
2023-01-27T00:31:52.588Z,2.20
2023-01-27T00:34:21.851Z,2.10
2023-01-27T00:36:49.855Z,2.30
2023-01-27T00:39:17.845Z,2.30
2023-01-27T00:41:45.762Z,2.50
2023-01-27T00:44:13.831Z,2.20
2023-01-27T00:46:42.374Z,4.30
2023-01-27T00:49:13.233Z,2.30
2023-01-27T00:51:42.852Z,2.40
2023-01-27T00:54:10.928Z,2.30
2023-01-27T00:56:39.199Z,2.50
2023-01-27T00:59:07.696Z,2.40
2023-01-27T01:01:35.854Z,2.50
2023-01-27T01:04:04.249Z,2.40
2023-01-27T01:06:32.150Z,2.40
2023-01-27T01:09:01.436Z,2.70
2023-01-27T01:11:29.385Z,2.20
2023-01-27T01:13:57.321Z,2.10
2023-01-27T01:16:26.541Z,2.40
2023-01-27T01:18:54.859Z,4.50
2023-01-27T01:21:23.062Z,2.50
2023-01-27T01:23:51.112Z,2.50
2023-01-27T01:26:20.487Z,2.70
2023-01-27T01:28:48.503Z,2.30
2023-01-27T01:31:17.955Z,2.50
2023-01-27T01:33:46.034Z,2.60
2023-01-27T01:36:16.418Z,3.40
2023-01-27T01:38:44.554Z,4.40
2023-01-27T01:41:16.233Z,2.60
2023-01-27T01:43:45.461Z,4.00
2023-01-27T01:46:13.763Z,2.50
2023-01-27T01:48:44.030Z,2.60
2023-01-27T01:51:15.840Z,2.40
2023-01-27T01:53:50.825Z,2.60
2023-01-27T01:56:23.992Z,4.40
2023-01-27T01:58:55.729Z,2.50
2023-01-27T02:01:23.798Z,2.40
2023-01-27T02:03:57.742Z,4.80
2023-01-27T02:06:26.164Z,2.40
2023-01-27T02:08:55.549Z,4.30
2023-01-27T02:11:23.521Z,2.70
2023-01-27T02:13:53.193Z,2.60
2023-01-27T02:16:21.171Z,2.50
2023-01-27T02:18:49.144Z,3.30
2023-01-27T02:21:17.065Z,3.10
2023-01-27T02:23:56.563Z,2.50
2023-01-27T02:26:27.216Z,3.80
2023-01-27T02:28:58.346Z,2.90
2023-01-27T02:31:26.385Z,2.60
2023-01-27T02:34:00.565Z,3.30
2023-01-27T02:36:30.667Z,3.70
2023-01-27T02:39:00.588Z,2.50
2023-01-27T02:41:32.963Z,2.60
2023-01-27T02:44:02.367Z,2.70
2023-01-27T02:46:30.472Z,2.60
2023-01-27T02:48:59.235Z,2.50
2023-01-27T02:51:27.177Z,2.60
2023-01-27T02:53:55.101Z,2.80
2023-01-27T02:56:23.115Z,2.60
2023-01-27T02:58:51.011Z,2.70
2023-01-27T03:01:20.300Z,2.40
2023-01-27T03:03:48.206Z,2.60
2023-01-27T03:06:16.416Z,2.60
2023-01-27T03:08:44.784Z,2.60
2023-01-27T03:11:13.262Z,2.50
2023-01-27T03:13:42.119Z,2.80
2023-01-27T03:16:29.364Z,2.60
2023-01-27T03:18:58.580Z,2.80
2023-01-27T03:21:26.516Z,2.80
2023-01-27T03:23:54.460Z,2.70
2023-01-27T03:26:22.366Z,2.60
2023-01-27T03:29:10.225Z,2.70
2023-01-27T03:31:38.280Z,3.80
2023-01-27T03:34:07.569Z,2.70
2023-01-27T03:36:53.204Z,2.80
2023-01-27T03:39:38.641Z,2.70
2023-01-27T03:42:24.205Z,2.70
2023-01-27T03:45:09.925Z,2.90
2023-01-27T03:47:37.923Z,4.30
2023-01-27T03:50:11.310Z,3.00
2023-01-27T03:52:39.383Z,2.90
2023-01-27T03:55:09.470Z,4.10
2023-01-27T03:57:38.311Z,2.90
2023-01-27T04:00:07.160Z,3.70
2023-01-27T04:02:52.553Z,2.90
2023-01-27T04:05:39.367Z,3.60
2023-01-27T04:08:07.621Z,2.40
2023-01-27T04:10:35.507Z,2.90
2023-01-27T04:13:02.388Z,2.70
2023-01-27T04:15:30.251Z,2.50
2023-01-27T04:17:58.131Z,4.30
2023-01-27T04:20:27.365Z,2.60
2023-01-27T04:22:56.034Z,2.60
2023-01-27T04:25:23.886Z,2.70
2023-01-27T04:27:51.854Z,2.80
2023-01-27T04:30:20.114Z,3.20
2023-01-27T04:32:47.988Z,2.60
2023-01-27T04:35:16.099Z,3.80
2023-01-27T04:37:45.303Z,2.90
2023-01-27T04:40:14.494Z,2.60
2023-01-27T04:42:42.364Z,2.90
2023-01-27T04:45:11.574Z,2.80
2023-01-27T04:47:39.637Z,3.00
2023-01-27T04:50:08.121Z,2.70
2023-01-27T04:52:36.006Z,2.90
2023-01-27T04:55:05.466Z,2.70
2023-01-27T04:57:33.355Z,3.00
2023-01-27T05:00:01.208Z,2.70
2023-01-27T05:02:29.095Z,2.80
2023-01-27T05:04:56.934Z,3.00
2023-01-27T05:07:25.031Z,2.70
2023-01-27T05:09:52.955Z,2.80
2023-01-27T05:12:22.194Z,3.60
2023-01-27T05:14:50.060Z,2.70
2023-01-27T05:17:18.415Z,4.30
2023-01-27T05:19:46.274Z,4.30
2023-01-27T05:22:14.199Z,2.90
2023-01-27T05:24:42.084Z,3.40
2023-01-27T05:27:09.941Z,2.70
2023-01-27T05:29:39.159Z,2.70
2023-01-27T05:32:07.128Z,2.80
2023-01-27T05:34:35.017Z,4.20
2023-01-27T05:37:02.926Z,2.60
2023-01-27T05:39:30.825Z,4.20
2023-01-27T05:41:58.725Z,2.80
2023-01-27T05:44:26.639Z,4.10
2023-01-27T05:46:55.977Z,4.00
2023-01-27T05:49:23.817Z,2.90
2023-01-27T05:51:51.734Z,2.90
2023-01-27T05:54:19.794Z,2.90
2023-01-27T05:56:47.717Z,2.90
2023-01-27T05:59:15.659Z,4.20
2023-01-27T06:01:43.632Z,2.90
2023-01-27T06:04:12.920Z,2.90
2023-01-27T06:06:40.783Z,2.90
2023-01-27T06:09:08.661Z,3.20
2023-01-27T06:11:36.557Z,3.50
2023-01-27T06:14:04.471Z,5.10
2023-01-27T06:16:32.422Z,2.60
2023-01-27T06:19:00.446Z,4.50
2023-01-27T06:21:29.736Z,3.80
2023-01-27T06:23:58.072Z,3.90
2023-01-27T06:26:26.161Z,2.90
2023-01-27T06:28:54.212Z,2.90
2023-01-27T06:31:23.068Z,2.90
2023-01-27T06:33:51.503Z,2.70
2023-01-27T06:36:21.075Z,4.70
2023-01-27T06:38:51.128Z,3.00
2023-01-27T06:41:19.523Z,3.10
2023-01-27T06:43:47.627Z,3.00
2023-01-27T06:46:15.740Z,4.60
2023-01-27T06:48:43.728Z,3.00
2023-01-27T06:51:11.766Z,2.90
2023-01-27T06:53:39.711Z,3.40
2023-01-27T06:56:09.608Z,2.90
2023-01-27T06:58:37.488Z,4.50
2023-01-27T07:01:07.105Z,3.30
2023-01-27T07:03:37.834Z,3.30
2023-01-27T07:06:06.294Z,3.20
2023-01-27T07:08:34.207Z,3.30
2023-01-27T07:11:04.528Z,3.00
2023-01-27T07:13:33.919Z,3.50
2023-01-27T07:16:01.893Z,4.00
2023-01-27T07:18:30.052Z,3.30
2023-01-27T07:20:58.053Z,3.40
2023-01-27T07:23:26.079Z,3.00
2023-01-27T07:25:53.971Z,3.10
2023-01-27T07:28:21.894Z,3.10
2023-01-27T07:30:51.247Z,3.00
2023-01-27T07:33:19.154Z,4.70
2023-01-27T07:35:49.823Z,3.40
2023-01-27T07:38:17.875Z,3.00
2023-01-27T07:40:45.764Z,3.10
2023-01-27T07:43:13.728Z,2.90
2023-01-27T07:45:41.616Z,3.30
2023-01-27T07:48:12.473Z,2.70
2023-01-27T07:50:41.835Z,4.40
2023-01-27T07:53:11.367Z,3.10
2023-01-27T07:55:39.332Z,2.80
2023-01-27T07:58:07.514Z,3.00
2023-01-27T08:00:36.387Z,3.70
2023-01-27T08:03:06.004Z,4.70
2023-01-27T08:05:36.009Z,3.10
2023-01-27T08:08:05.083Z,2.80
2023-01-27T08:10:33.250Z,3.20
2023-01-27T08:13:01.411Z,2.90
2023-01-27T08:15:29.391Z,3.20
2023-01-27T08:17:57.519Z,4.40
2023-01-27T08:20:27.195Z,4.50
2023-01-27T08:22:56.911Z,4.60
2023-01-27T08:25:25.208Z,3.00
2023-01-27T08:27:53.801Z,4.70
2023-01-27T08:30:22.574Z,3.30
2023-01-27T08:32:50.879Z,4.10
2023-01-27T08:35:18.955Z,3.80
2023-01-27T08:37:48.843Z,2.60
2023-01-27T08:40:19.196Z,3.00
2023-01-27T08:42:47.257Z,3.40
2023-01-27T08:45:15.178Z,2.90
2023-01-27T08:47:43.217Z,2.90
2023-01-27T08:50:12.600Z,3.20
2023-01-27T08:52:40.847Z,3.40
2023-01-27T08:55:09.258Z,3.20
2023-01-27T08:57:38.881Z,3.50
2023-01-27T09:00:09.121Z,4.20
2023-01-27T09:02:37.216Z,3.50
2023-01-27T09:05:05.687Z,3.70
2023-01-27T09:07:34.192Z,3.60
2023-01-27T09:10:20.058Z,5.10
2023-01-27T09:12:49.915Z,4.20
2023-01-27T09:15:17.902Z,5.40
2023-01-27T09:17:45.858Z,4.00
2023-01-27T09:20:15.003Z,3.60
2023-01-27T09:22:44.081Z,3.70
2023-01-27T09:25:16.396Z,4.00
2023-01-27T09:27:44.470Z,3.50
2023-01-27T09:30:15.911Z,5.40
2023-01-27T09:32:44.127Z,3.70
2023-01-27T09:35:12.644Z,3.50
2023-01-27T09:37:46.311Z,3.40
2023-01-27T09:40:25.845Z,5.30
2023-01-27T09:43:29.471Z,3.90
2023-01-27T09:46:16.996Z,3.80
2023-01-27T09:48:56.747Z,3.70
2023-01-27T09:51:31.671Z,4.90
2023-01-27T09:54:27.659Z,5.60
2023-01-27T09:57:04.823Z,3.90
2023-01-27T09:59:49.094Z,4.50
2023-01-27T10:02:32.258Z,4.10
2023-01-27T10:05:33.368Z,5.10
2023-01-27T10:08:32.263Z,4.00
2023-01-27T10:11:13.122Z,4.00
2023-01-27T10:13:52.239Z,5.00
2023-01-27T10:16:44.820Z,4.00
2023-01-27T10:19:28.935Z,4.10
2023-01-27T10:22:09.275Z,4.10
2023-01-27T10:24:48.787Z,5.40
2023-01-27T10:27:18.678Z,3.90
2023-01-27T10:29:48.348Z,5.30
2023-01-27T10:32:27.715Z,5.00
2023-01-27T10:35:17.184Z,5.00
2023-01-27T10:37:56.069Z,4.70
2023-01-27T10:40:35.049Z,3.90
2023-01-27T10:43:10.779Z,5.00
2023-01-27T10:45:41.903Z,4.10
2023-01-27T10:48:24.580Z,4.50
2023-01-27T10:51:00.643Z,5.10
2023-01-27T10:53:35.280Z,5.70
2023-01-27T10:56:09.219Z,4.20
2023-01-27T10:58:50.601Z,4.00
2023-01-27T11:01:22.502Z,3.60
2023-01-27T11:03:55.664Z,4.90
2023-01-27T11:06:28.379Z,5.70
2023-01-27T11:09:05.687Z,4.10
2023-01-27T11:11:47.180Z,4.00
2023-01-27T11:14:23.738Z,3.60
2023-01-27T11:16:54.505Z,4.80
2023-01-27T11:19:34.119Z,3.60
2023-01-27T11:22:08.633Z,5.50
2023-01-27T11:24:46.138Z,4.60
2023-01-27T11:27:25.348Z,4.10
2023-01-27T11:29:56.971Z,5.20
2023-01-27T11:32:37.648Z,5.20
2023-01-27T11:35:09.612Z,5.60
2023-01-27T11:37:40.717Z,4.30
2023-01-27T11:40:17.169Z,5.80
2023-01-27T11:42:46.015Z,4.10
2023-01-27T11:45:17.133Z,5.50
2023-01-27T11:47:46.992Z,4.10
2023-01-27T11:50:16.637Z,5.60
2023-01-27T11:52:49.595Z,4.10
2023-01-27T11:55:20.090Z,5.70
2023-01-27T11:57:53.031Z,4.00
2023-01-27T12:00:25.162Z,5.20
2023-01-27T12:03:04.559Z,3.90
2023-01-27T12:05:35.496Z,5.40
2023-01-27T12:08:06.297Z,3.50
2023-01-27T12:10:35.825Z,3.80
2023-01-27T12:13:10.889Z,5.60
2023-01-27T12:15:47.745Z,3.10
2023-01-27T12:18:16.968Z,3.60
2023-01-27T12:20:47.170Z,3.70
2023-01-27T12:23:22.433Z,3.60
2023-01-27T12:25:55.237Z,3.70
2023-01-27T12:28:29.364Z,3.60
2023-01-27T12:31:06.890Z,5.30
2023-01-27T12:33:36.754Z,3.50
2023-01-27T12:36:12.975Z,3.70
2023-01-27T12:38:50.531Z,3.90
2023-01-27T12:41:24.613Z,3.50
2023-01-27T12:43:54.632Z,3.70
2023-01-27T12:46:25.095Z,5.00
2023-01-27T12:48:54.829Z,5.40
2023-01-27T12:51:24.634Z,5.40
2023-01-27T12:54:21.776Z,3.70
2023-01-27T12:56:50.283Z,3.70
2023-01-27T12:59:21.377Z,3.30
2023-01-27T13:02:00.829Z,3.30
2023-01-27T13:04:29.895Z,3.30
2023-01-27T13:07:06.853Z,3.40
2023-01-27T13:09:39.507Z,5.70
2023-01-27T13:12:20.887Z,5.30
2023-01-27T13:14:52.532Z,5.90
2023-01-27T13:17:30.344Z,3.60
2023-01-27T13:20:02.627Z,5.10
2023-01-27T13:22:37.367Z,5.70
2023-01-27T13:25:10.621Z,3.50
2023-01-27T13:27:41.657Z,3.70
2023-01-27T13:30:20.857Z,3.50
2023-01-27T13:32:52.808Z,5.10
2023-01-27T13:35:25.754Z,5.10
2023-01-27T13:38:00.562Z,3.40
2023-01-27T13:40:35.340Z,5.50
2023-01-27T13:43:10.792Z,3.40
2023-01-27T13:45:41.708Z,3.40
2023-01-27T13:48:18.296Z,3.60
2023-01-27T13:50:50.385Z,5.00
2023-01-27T13:53:21.002Z,4.70
2023-01-27T13:55:59.186Z,3.70
2023-01-27T13:58:44.133Z,4.40
2023-01-27T14:01:23.874Z,5.80
2023-01-27T14:04:12.972Z,3.40
2023-01-27T14:06:54.323Z,3.60
2023-01-27T14:09:47.053Z,3.10
2023-01-27T14:12:29.528Z,4.10
2023-01-27T14:15:06.236Z,4.00
2023-01-27T14:17:40.267Z,4.40
2023-01-27T14:20:30.363Z,2.50
2023-01-27T14:23:12.804Z,2.90
2023-01-27T14:25:50.427Z,3.40
2023-01-27T14:28:29.539Z,2.70
2023-01-27T14:31:02.574Z,3.10
2023-01-27T14:33:44.741Z,3.20
2023-01-27T14:36:18.421Z,2.60
2023-01-27T14:38:58.345Z,4.60
2023-01-27T14:41:32.357Z,3.00
2023-01-27T14:44:07.519Z,5.30
2023-01-27T14:47:00.147Z,3.50
2023-01-27T14:49:47.786Z,2.90
2023-01-27T14:52:30.131Z,3.30
2023-01-27T14:55:20.596Z,3.10
2023-01-27T14:57:54.730Z,3.10
2023-01-27T15:00:32.423Z,3.00
2023-01-27T15:03:17.287Z,3.00
2023-01-27T15:05:57.492Z,2.90
2023-01-27T15:08:32.011Z,3.70
2023-01-27T15:11:17.321Z,5.40
2023-01-27T15:14:00.049Z,2.80
2023-01-27T15:16:45.646Z,4.90
2023-01-27T15:19:34.852Z,3.10
2023-01-27T15:22:33.202Z,3.10
2023-01-27T15:25:25.881Z,3.10
2023-01-27T15:27:55.018Z,3.10
2023-01-27T15:30:25.404Z,3.60
2023-01-27T15:32:55.148Z,3.10
2023-01-27T15:35:42.350Z,2.90
2023-01-27T15:38:20.467Z,4.40
2023-01-27T15:41:01.616Z,2.90
2023-01-27T15:43:31.239Z,2.90
2023-01-27T15:46:20.330Z,4.20
2023-01-27T15:48:49.728Z,2.50
2023-01-27T15:51:20.055Z,4.30
2023-01-27T15:53:52.238Z,4.60
2023-01-27T15:56:20.254Z,4.60
2023-01-27T15:58:56.963Z,3.40
2023-01-27T16:01:28.360Z,2.80
2023-01-27T16:04:12.685Z,4.20
2023-01-27T16:06:48.033Z,2.20
2023-01-27T16:09:32.208Z,2.50
2023-01-27T16:12:02.627Z,4.70
2023-01-27T16:14:45.338Z,2.40
2023-01-27T16:17:22.811Z,2.70
2023-01-27T16:20:03.365Z,2.70
2023-01-27T16:22:36.444Z,2.30
2023-01-27T16:25:22.824Z,2.40
2023-01-27T16:27:58.536Z,2.60
2023-01-27T16:30:28.693Z,2.20
2023-01-27T16:33:06.116Z,2.60
2023-01-27T16:35:43.769Z,2.20
2023-01-27T16:38:22.804Z,3.90
2023-01-27T16:40:55.042Z,3.40
2023-01-27T16:43:26.072Z,2.30
2023-01-27T16:45:55.592Z,4.90
2023-01-27T16:48:32.218Z,4.10
2023-01-27T16:51:13.853Z,2.20
2023-01-27T16:53:46.674Z,2.60
2023-01-27T16:56:25.824Z,2.60
2023-01-27T16:59:02.841Z,2.90
2023-01-27T17:01:38.711Z,2.30
2023-01-27T17:04:19.068Z,4.70
2023-01-27T17:06:49.260Z,3.40
2023-01-27T17:09:22.821Z,2.20
2023-01-27T17:11:50.799Z,2.20
2023-01-27T17:14:30.495Z,2.20
2023-01-27T17:17:00.894Z,3.70
2023-01-27T17:19:32.138Z,2.30
2023-01-27T17:22:03.394Z,1.80
2023-01-27T17:24:33.428Z,3.80
2023-01-27T17:27:04.546Z,2.20
2023-01-27T17:29:36.236Z,3.90
2023-01-27T17:32:15.073Z,2.20
2023-01-27T17:34:43.128Z,2.60
2023-01-27T17:37:17.850Z,1.90
2023-01-27T17:39:46.435Z,2.10
2023-01-27T17:42:16.781Z,4.00
2023-01-27T17:44:44.930Z,2.00
2023-01-27T17:47:15.608Z,1.90
2023-01-27T17:49:44.194Z,2.10
2023-01-27T17:52:17.303Z,2.40
2023-01-27T17:54:47.390Z,2.40
2023-01-27T17:57:21.288Z,2.90
2023-01-27T17:59:56.576Z,2.20
2023-01-27T18:02:28.252Z,2.30
2023-01-27T18:05:00.209Z,2.10
2023-01-27T18:07:28.608Z,2.10
2023-01-27T18:09:58.053Z,4.10
2023-01-27T18:12:34.521Z,3.90
2023-01-27T18:15:37.755Z,3.50
2023-01-27T18:18:08.048Z,2.30
2023-01-27T18:20:36.926Z,2.10
2023-01-27T18:23:07.393Z,2.30
2023-01-27T18:25:36.616Z,4.10
2023-01-27T18:28:04.892Z,1.90
2023-01-27T18:30:32.966Z,2.20
2023-01-27T18:33:03.615Z,2.10
2023-01-27T18:35:33.718Z,1.90
2023-01-27T18:38:03.390Z,3.50
2023-01-27T18:40:34.284Z,2.20
2023-01-27T18:43:05.149Z,1.60
2023-01-27T18:45:33.039Z,3.00
2023-01-27T18:48:01.043Z,1.60
2023-01-27T18:50:29.687Z,1.70
2023-01-27T18:52:57.616Z,3.20
2023-01-27T18:55:27.370Z,2.00
2023-01-27T18:57:56.847Z,1.60
2023-01-27T19:00:28.464Z,1.70
2023-01-27T19:03:00.820Z,1.50
2023-01-27T19:05:31.489Z,1.30
2023-01-27T19:07:59.569Z,2.10
2023-01-27T19:10:29.415Z,1.70
2023-01-27T19:12:59.253Z,1.80
2023-01-27T19:15:31.173Z,2.00
2023-01-27T19:18:01.265Z,2.00
2023-01-27T19:20:31.204Z,3.30
2023-01-27T19:23:00.192Z,1.60
2023-01-27T19:25:30.655Z,1.90
2023-01-27T19:28:03.926Z,1.60
2023-01-27T19:30:37.044Z,1.20
2023-01-27T19:33:07.241Z,3.50
2023-01-27T19:35:36.526Z,1.90
2023-01-27T19:38:05.883Z,1.60
2023-01-27T19:40:33.786Z,4.30
2023-01-27T19:43:02.764Z,1.60
2023-01-27T19:45:30.761Z,4.00
2023-01-27T19:48:01.112Z,1.60
2023-01-27T19:50:31.034Z,1.60
2023-01-27T19:52:59.737Z,1.70
2023-01-27T19:55:27.747Z,1.50
2023-01-27T19:57:57.812Z,1.90
2023-01-27T20:00:28.698Z,4.10
2023-01-27T20:02:57.418Z,3.90
2023-01-27T20:05:30.650Z,1.50
2023-01-27T20:08:00.526Z,2.30
2023-01-27T20:10:31.001Z,2.80
2023-01-27T20:13:00.258Z,1.70
2023-01-27T20:15:30.909Z,1.50
2023-01-27T20:17:58.848Z,1.70
2023-01-27T20:20:28.851Z,3.10
2023-01-27T20:22:57.324Z,1.10
2023-01-27T20:25:27.383Z,1.40
2023-01-27T20:27:58.167Z,1.10
2023-01-27T20:30:28.168Z,1.60
2023-01-27T20:32:56.662Z,1.90
2023-01-27T20:35:25.287Z,1.60
2023-01-27T20:37:55.176Z,1.60
2023-01-27T20:40:25.409Z,1.40
2023-01-27T20:42:53.968Z,1.30
2023-01-27T20:45:22.879Z,1.50
2023-01-27T20:47:51.625Z,1.90
2023-01-27T20:50:20.649Z,1.30
2023-01-27T20:52:49.280Z,1.40
2023-01-27T20:55:20.245Z,1.40
2023-01-27T20:57:48.401Z,1.50
2023-01-27T21:00:18.463Z,1.40
2023-01-27T21:02:46.589Z,1.50
2023-01-27T21:05:15.371Z,1.40
2023-01-27T21:07:43.687Z,1.40
2023-01-27T21:10:12.425Z,1.30
2023-01-27T21:12:41.659Z,1.40
2023-01-27T21:15:11.130Z,1.30
2023-01-27T21:17:39.104Z,1.40
2023-01-27T21:20:08.828Z,1.30
2023-01-27T21:22:36.708Z,1.40
2023-01-27T21:25:04.802Z,1.20
2023-01-27T21:27:32.701Z,1.40
2023-01-27T21:30:01.983Z,1.40
2023-01-27T21:32:31.646Z,1.20
2023-01-27T21:34:59.775Z,2.30
2023-01-27T21:37:27.714Z,1.80
2023-01-27T21:39:55.587Z,1.30
2023-01-27T21:42:40.719Z,1.30
2023-01-27T21:45:15.600Z,1.20
2023-01-27T21:47:43.997Z,1.90
2023-01-27T21:50:14.412Z,1.20
2023-01-27T21:52:44.473Z,1.30
2023-01-27T21:55:15.042Z,1.10
2023-01-27T21:57:45.502Z,1.20
2023-01-27T22:00:16.561Z,2.00
2023-01-27T22:02:44.903Z,1.30
2023-01-27T22:05:13.437Z,1.20
2023-01-27T22:07:41.701Z,1.20
2023-01-27T22:10:15.938Z,1.20
2023-01-27T22:12:44.039Z,1.30
2023-01-27T22:15:15.133Z,1.30
2023-01-27T22:17:44.099Z,1.40
2023-01-27T22:20:13.922Z,1.30
2023-01-27T22:22:41.960Z,1.30
2023-01-27T22:25:11.015Z,1.20
2023-01-27T22:27:41.309Z,1.30
2023-01-27T22:30:10.889Z,1.20
2023-01-27T22:32:40.187Z,1.20
2023-01-27T22:35:08.953Z,2.40
2023-01-27T22:37:38.624Z,1.20
2023-01-27T22:40:07.654Z,1.10
2023-01-27T22:42:35.730Z,1.30
2023-01-27T22:45:03.799Z,1.20
2023-01-27T22:47:31.679Z,1.10
2023-01-27T22:50:00.992Z,1.20
2023-01-27T22:52:28.878Z,1.00
2023-01-27T22:54:56.772Z,1.20
2023-01-27T22:57:30.035Z,1.30
2023-01-27T22:59:58.645Z,1.20
2023-01-27T23:02:27.858Z,1.20
2023-01-27T23:04:55.813Z,1.30
2023-01-27T23:07:25.137Z,1.30
2023-01-27T23:09:53.015Z,1.10
2023-01-27T23:12:20.925Z,1.20
2023-01-27T23:14:48.836Z,1.00
2023-01-27T23:17:16.765Z,1.00
2023-01-27T23:19:44.694Z,1.10
2023-01-27T23:22:12.571Z,1.10
2023-01-27T23:24:41.824Z,1.10
2023-01-27T23:27:09.710Z,1.00
2023-01-27T23:29:37.574Z,1.00
2023-01-27T23:32:05.622Z,1.00
2023-01-27T23:34:33.517Z,1.20
2023-01-27T23:37:02.461Z,1.00
2023-01-27T23:39:30.434Z,1.00
2023-01-27T23:41:59.716Z,1.10
2023-01-27T23:44:27.626Z,1.00
2023-01-27T23:46:55.509Z,1.10
2023-01-27T23:49:23.406Z,1.10
2023-01-27T23:51:51.235Z,1.10
2023-01-27T23:54:19.308Z,1.00
2023-01-27T23:56:47.195Z,1.10
2023-01-27T23:59:16.636Z,1.00
